Creole Ann — WDC3286 — position and weather

sailwx.info

Track history (hours):
 
Tides and Currents Weather Stations Pressure Air Temp Water Temp Dewpoint Dewpoint Depression Visibility Wind Speed Wind Dir Waves Ship Positions

Creole Ann

Owner: LeBeouf Bros. Towing, L.L.C., Houma, LA. More information available from US FCC via Universal Licensing System and Coast Guard Vessel Documentation Center.

Last reported at 2018-Jun-19 10:30 UTC. Time now 2018-Jun-19 10:27 UTC.
Position N 29°60' W 093°46'.

Length 20 m.

MMSI: 367005280.

Date/timePositionNaut miles runAvg speedWind from/ knotsBaromVisibWave heightAir tempDewpointWater temp
2018-Jun-19 10:30N 29°60' W 093°46'2 4.3
2018-Jun-19 10:00N 29°59' W 093°49'2 4.7
2018-Jun-19 09:30N 29°58' W 093°51'3 6.1
2018-Jun-19 09:01N 29°59' W 093°55'3 6.2
2018-Jun-19 08:30N 30°01' W 093°58'3 6.1
2018-Jun-19 08:00N 30°01' W 094°01'2 3.2
2018-Jun-19 07:28N 30°02' W 094°03'0 0.0
2018-Jun-19 06:59N 30°02' W 094°03'0 0.0
2018-Jun-19 06:30N 30°02' W 094°03'0 0.0
2018-Jun-19 06:00N 30°02' W 094°03'0 0.0
2018-Jun-19 05:24N 30°02' W 094°03'0 0.0
2018-Jun-19 05:00N 30°02' W 094°03'0 0.0
2018-Jun-19 04:29N 30°02' W 094°03'0 0.0
2018-Jun-19 03:58N 30°02' W 094°03'0 0.0
2018-Jun-19 03:25N 30°02' W 094°03'0 0.0
2018-Jun-19 02:58N 30°02' W 094°03'0 0.0
2018-Jun-19 02:27N 30°02' W 094°03'0 0.0
2018-Jun-19 02:00N 30°02' W 094°03'0 0.0
2018-Jun-19 01:30N 30°02' W 094°03'0 0.0
2018-Jun-19 01:00N 30°02' W 094°03'0 0.0
2018-Jun-19 00:28N 30°02' W 094°03'0 0.0
2018-Jun-18 23:58N 30°02' W 094°03'0 0.0
2018-Jun-18 23:24N 30°02' W 094°03'0 0.0
2018-Jun-18 22:58N 30°02' W 094°03'0 0.0
2018-Jun-18 22:30N 30°02' W 094°03'0 0.0
2018-Jun-18 21:58N 30°02' W 094°03'0 0.0
2018-Jun-18 21:27N 30°02' W 094°03'0 0.0
2018-Jun-18 20:58N 30°02' W 094°03'0 0.0
2018-Jun-18 20:30N 30°02' W 094°03'0 0.0
2018-Jun-18 19:57N 30°02' W 094°03'0 0.0
2018-Jun-18 19:24N 30°02' W 094°03'0 0.0
2018-Jun-18 18:53N 30°02' W 094°03'0 0.0
2018-Jun-18 18:28N 30°02' W 094°03'0 0.0
2018-Jun-18 18:00N 30°02' W 094°03'0 0.0
2018-Jun-18 17:30N 30°02' W 094°03'0 0.0
2018-Jun-18 16:59N 30°02' W 094°03'0 0.0
2018-Jun-18 16:21N 30°02' W 094°03'0 0.0
2018-Jun-18 15:55N 30°02' W 094°03'0 0.0
2018-Jun-18 15:17N 30°02' W 094°03'0 0.0
2018-Jun-18 14:59N 30°02' W 094°03'2 3.7
2018-Jun-18 14:30N 30°01' W 094°01'3 6.8
2018-Jun-18 14:00N 30°01' W 093°57'4 7.2
2018-Jun-18 13:30N 29°59' W 093°54'3 6.2
2018-Jun-18 13:00N 29°59' W 093°50'4 7.6
2018-Jun-18 12:30N 30°00' W 093°46'3 6.3
2018-Jun-18 12:00N 30°03' W 093°44'4 7.2
2018-Jun-18 11:30N 30°04' W 093°40'6 7.2
2018-Jun-18 10:43N 30°04' W 093°33'1 7.1
2018-Jun-18 10:30N 30°04' W 093°32'4 7.1
2018-Jun-18 10:00N 30°04' W 093°27'3 6.7
2018-Jun-18 09:30N 30°04' W 093°23'3 5.3
2018-Jun-18 09:00N 30°04' W 093°21'3 5.4
2018-Jun-18 08:30N 30°07' W 093°20'1 2.4
2018-Jun-18 07:58N 30°08' W 093°19'0 0.0
2018-Jun-18 07:23N 30°08' W 093°19'0 0.0
2018-Jun-18 06:59N 30°08' W 093°19'0 0.0
2018-Jun-18 06:30N 30°08' W 093°19'0 0.0
2018-Jun-18 05:58N 30°08' W 093°19'0 0.0
2018-Jun-18 05:27N 30°08' W 093°19'0 0.0
2018-Jun-18 04:59N 30°08' W 093°19'0 0.0
2018-Jun-18 04:29N 30°08' W 093°19'0 0.0
2018-Jun-18 03:59N 30°08' W 093°19'0 0.0
2018-Jun-18 03:30N 30°08' W 093°19'0 0.0
2018-Jun-18 02:58N 30°08' W 093°19'0 0.0
2018-Jun-18 02:28N 30°08' W 093°19'0 0.0
2018-Jun-18 01:55N 30°08' W 093°19'0 0.0
2018-Jun-18 01:30N 30°08' W 093°19'0 0.0
2018-Jun-18 01:00N 30°08' W 093°19'0 0.0
2018-Jun-18 00:26N 30°08' W 093°19'0 0.0
2018-Jun-17 23:58N 30°08' W 093°19'0 0.0
2018-Jun-17 23:22N 30°08' W 093°19'0 0.0
2018-Jun-17 23:01N 30°08' W 093°19'0 0.0
2018-Jun-17 22:28N 30°08' W 093°19'0 0.0
2018-Jun-17 21:55N 30°08' W 093°19'0 0.0
2018-Jun-17 21:28N 30°08' W 093°19'0 0.0
2018-Jun-17 20:58N 30°08' W 093°19'0 0.0
2018-Jun-17 20:26N 30°08' W 093°19'0 0.0
2018-Jun-17 20:00N 30°08' W 093°19'0 0.0
2018-Jun-17 19:24N 30°08' W 093°19'0 0.0
2018-Jun-17 18:59N 30°08' W 093°19'0 0.0
2018-Jun-17 18:26N 30°08' W 093°19'0 0.0
2018-Jun-17 17:59N 30°08' W 093°19'0 0.0
2018-Jun-17 17:27N 30°08' W 093°19'0 0.0
2018-Jun-17 16:58N 30°08' W 093°19'0 0.0
2018-Jun-17 16:28N 30°08' W 093°19'0 0.0
2018-Jun-17 15:55N 30°08' W 093°19'0 0.0
2018-Jun-17 15:29N 30°08' W 093°19'0 0.0
2018-Jun-17 14:55N 30°08' W 093°19'0 0.0
2018-Jun-17 14:26N 30°08' W 093°19'0 0.3
2018-Jun-17 13:57N 30°08' W 093°19'0 0.0
2018-Jun-17 13:29N 30°08' W 093°19'0 0.0
2018-Jun-17 12:58N 30°08' W 093°19'0 0.0
2018-Jun-17 12:29N 30°08' W 093°19'0 0.0
2018-Jun-17 12:00N 30°08' W 093°19'0 0.0
2018-Jun-17 11:28N 30°08' W 093°19'0 0.0
2018-Jun-17 10:57N 30°08' W 093°19'0 0.0
2018-Jun-17 10:28N 30°08' W 093°19'0 0.0
2018-Jun-17 09:56N 30°08' W 093°19'0 0.0
2018-Jun-17 09:25N 30°08' W 093°19'0 0.0
2018-Jun-17 08:59N 30°08' W 093°19'0 0.0
2018-Jun-17 08:29N 30°08' W 093°19'0 0.0
2018-Jun-17 08:00N 30°08' W 093°19'0 0.0
2018-Jun-17 07:28N 30°08' W 093°19'0 0.0
2018-Jun-17 07:00N 30°08' W 093°19'0 0.0
2018-Jun-17 06:30N 30°08' W 093°19'0 0.0
2018-Jun-17 05:57N 30°08' W 093°19'0 0.0
2018-Jun-17 05:30N 30°08' W 093°19'0 0.0
2018-Jun-17 04:58N 30°08' W 093°19'0 0.0
2018-Jun-17 04:30N 30°08' W 093°19'0 0.0
2018-Jun-17 04:00N 30°08' W 093°19'0 0.0
2018-Jun-17 03:30N 30°08' W 093°19'0 0.0
2018-Jun-17 02:59N 30°08' W 093°19'0 0.3
2018-Jun-17 02:28N 30°08' W 093°19'0 0.3
2018-Jun-17 02:00N 30°08' W 093°19'0 0.0
2018-Jun-17 01:28N 30°08' W 093°19'0 0.0
2018-Jun-17 00:56N 30°08' W 093°19'0 0.0
2018-Jun-17 00:29N 30°08' W 093°19'0 0.0
2018-Jun-16 23:56N 30°08' W 093°19'0 0.0
2018-Jun-16 23:30N 30°08' W 093°19'0 0.0
2018-Jun-16 22:59N 30°08' W 093°19'0 0.0
2018-Jun-16 22:30N 30°08' W 093°19'0 0.0
2018-Jun-16 21:57N 30°08' W 093°19'0 0.0
2018-Jun-16 21:27N 30°08' W 093°19'0 0.0
2018-Jun-16 20:58N 30°08' W 093°19'0 0.0
2018-Jun-16 20:28N 30°08' W 093°19'0 0.0
2018-Jun-16 19:59N 30°08' W 093°19'0 0.0
2018-Jun-16 19:28N 30°08' W 093°19'0 0.1
2018-Jun-16 19:00N 30°08' W 093°19'0 0.0
2018-Jun-16 18:27N 30°08' W 093°19'0 0.0
2018-Jun-16 17:55N 30°08' W 093°19'0 0.0
2018-Jun-16 17:23N 30°08' W 093°19'0 0.0
2018-Jun-16 16:58N 30°08' W 093°19'0 0.0
2018-Jun-16 16:30N 30°08' W 093°19'0 0.0
2018-Jun-16 16:00N 30°08' W 093°19'0 0.0
2018-Jun-16 15:30N 30°08' W 093°19'0 0.0
2018-Jun-16 14:58N 30°08' W 093°19'0 0.0
2018-Jun-16 14:29N 30°08' W 093°19'0 0.0
2018-Jun-16 13:51N 30°08' W 093°19'0 0.0
2018-Jun-16 13:30N 30°08' W 093°19'0 0.0
2018-Jun-16 12:56N 30°08' W 093°19'0 0.0
2018-Jun-16 12:30N 30°08' W 093°19'0 0.0
2018-Jun-16 11:56N 30°08' W 093°19'0 0.0
2018-Jun-16 11:28N 30°08' W 093°19'0 0.0
2018-Jun-16 10:58N 30°08' W 093°19'0 0.0
2018-Jun-16 10:31N 30°08' W 093°19'0 0.0
2018-Jun-16 09:59N 30°08' W 093°19'0 0.3
2018-Jun-16 09:29N 30°08' W 093°20'0 0.0
2018-Jun-16 08:58N 30°08' W 093°20'0 0.0
2018-Jun-16 08:28N 30°08' W 093°20'0 0.0
2018-Jun-16 08:00N 30°08' W 093°20'0 0.0
2018-Jun-16 07:28N 30°08' W 093°20'0 0.0
2018-Jun-16 07:00N 30°08' W 093°20'0 0.0
2018-Jun-16 06:30N 30°08' W 093°20'0 0.0
2018-Jun-16 05:54N 30°08' W 093°20'0 0.0
2018-Jun-16 05:30N 30°08' W 093°20'0 0.0
2018-Jun-16 04:58N 30°08' W 093°20'0 0.0
2018-Jun-16 04:30N 30°08' W 093°20'0 0.0
2018-Jun-16 03:58N 30°08' W 093°20'0 0.0
2018-Jun-16 03:24N 30°08' W 093°20'0 0.0
2018-Jun-16 03:01N 30°08' W 093°20'0 0.0
2018-Jun-16 02:30N 30°08' W 093°20'0 0.5
2018-Jun-16 02:00N 30°08' W 093°20'1 1.0
2018-Jun-16 01:30N 30°09' W 093°20'2 4.3
2018-Jun-16 01:00N 30°11' W 093°19'3 6.1
2018-Jun-16 00:30N 30°12' W 093°16'2 3.7
2018-Jun-16 00:00N 30°14' W 093°15'2 3.5
2018-Jun-15 23:26N 30°15' W 093°13'1 2.1
2018-Jun-15 23:00N 30°16' W 093°13'2 3.3
2018-Jun-15 22:30N 30°17' W 093°11'1 1.3
2018-Jun-15 22:00N 30°18' W 093°10'1 1.9
2018-Jun-15 21:29N 30°18' W 093°10'2 0.1
2018-Jun-15 04:12N 30°17' W 093°08'1 1.9
2018-Jun-15 03:54N 30°18' W 093°09'1 2.6
2018-Jun-15 03:23N 30°19' W 093°10'1 2.5
2018-Jun-15 02:56N 30°18' W 093°11'1 1.8
2018-Jun-15 02:30N 30°17' W 093°11'2 4.1
2018-Jun-15 01:59N 30°15' W 093°13'2 3.8
2018-Jun-15 01:27N 30°15' W 093°15'2 3.6
2018-Jun-15 01:00N 30°13' W 093°16'3 6.7
2018-Jun-15 00:30N 30°11' W 093°19'3 6.2
2018-Jun-15 00:00N 30°08' W 093°20'0 0.7
2018-Jun-14 23:30N 30°08' W 093°19'0 0.0
2018-Jun-14 22:59N 30°08' W 093°19'0 0.0
2018-Jun-14 22:23N 30°08' W 093°19'0 0.0
2018-Jun-14 21:58N 30°08' W 093°19'0 0.0
2018-Jun-14 21:29N 30°08' W 093°19'0 0.0
2018-Jun-14 21:01N 30°08' W 093°19'0 0.0
2018-Jun-14 20:27N 30°08' W 093°19'0 0.0
2018-Jun-14 19:59N 30°08' W 093°19'0 0.0
2018-Jun-14 19:28N 30°08' W 093°19'0 0.0
2018-Jun-14 19:00N 30°08' W 093°19'0 0.0
2018-Jun-14 18:28N 30°08' W 093°19'0 0.0
2018-Jun-14 17:54N 30°08' W 093°19'0 0.0
2018-Jun-14 17:28N 30°08' W 093°19'0 0.0
2018-Jun-14 16:58N 30°08' W 093°19'0 0.0
2018-Jun-14 16:29N 30°08' W 093°19'0 0.0
2018-Jun-14 16:00N 30°08' W 093°19'0 0.0
2018-Jun-14 15:25N 30°08' W 093°19'0 0.0
2018-Jun-14 14:58N 30°08' W 093°19'0 0.0
2018-Jun-14 14:28N 30°08' W 093°19'0 0.0
2018-Jun-14 13:59N 30°08' W 093°19'0 0.0
2018-Jun-14 13:30N 30°08' W 093°19'0 0.0
2018-Jun-14 12:58N 30°08' W 093°19'0 0.0
2018-Jun-14 12:29N 30°08' W 093°19'0 0.0
2018-Jun-14 11:58N 30°08' W 093°19'0 0.0
2018-Jun-14 11:24N 30°08' W 093°19'0 0.0
2018-Jun-14 11:00N 30°08' W 093°19'0 0.0
2018-Jun-14 10:29N 30°08' W 093°19'0 0.0
2018-Jun-14 10:00N 30°08' W 093°19'0 0.0
2018-Jun-14 09:30N 30°08' W 093°19'0 0.0
2018-Jun-14 08:58N 30°08' W 093°19'0 0.1
2018-Jun-14 08:16N 30°08' W 093°19'0 0.1
2018-Jun-14 07:59N 30°08' W 093°19'0 0.2
2018-Jun-14 07:26N 30°08' W 093°20'0 0.1
2018-Jun-14 06:53N 30°08' W 093°19'0 0.0
2018-Jun-14 06:30N 30°08' W 093°19'0 0.0
2018-Jun-14 05:59N 30°08' W 093°19'0 0.0
2018-Jun-14 05:30N 30°08' W 093°19'0 0.0
2018-Jun-14 04:59N 30°08' W 093°19'0 0.0
2018-Jun-14 04:29N 30°08' W 093°19'0 0.0
2018-Jun-14 04:00N 30°08' W 093°19'0 0.0
2018-Jun-14 03:23N 30°08' W 093°19'0 0.0
2018-Jun-14 03:00N 30°08' W 093°19'0 0.0
2018-Jun-14 02:28N 30°08' W 093°19'0 0.0
2018-Jun-14 01:58N 30°08' W 093°19'0 0.2
2018-Jun-14 01:25N 30°08' W 093°20'0 0.2
2018-Jun-14 00:57N 30°08' W 093°19'0 0.0
2018-Jun-14 00:28N 30°08' W 093°19'0 0.0
2018-Jun-14 00:00N 30°08' W 093°19'0 0.0
2018-Jun-13 23:24N 30°08' W 093°19'0 0.0
2018-Jun-13 22:58N 30°08' W 093°19'0 0.0
2018-Jun-13 22:30N 30°08' W 093°19'0 0.0
2018-Jun-13 22:00N 30°08' W 093°19'0 0.0
2018-Jun-13 21:25N 30°08' W 093°19'0 0.0
2018-Jun-13 21:01N 30°08' W 093°19'0 0.0
2018-Jun-13 20:24N 30°08' W 093°19'0 0.0
2018-Jun-13 19:56N 30°08' W 093°19'0 0.0
2018-Jun-13 19:30N 30°08' W 093°19'0 0.0
2018-Jun-13 18:59N 30°08' W 093°19'0 0.0
2018-Jun-13 18:28N 30°08' W 093°19'0 0.0
2018-Jun-13 17:56N 30°08' W 093°19'0 0.0
2018-Jun-13 17:29N 30°08' W 093°19'0 0.0
2018-Jun-13 16:59N 30°08' W 093°19'0 0.0
2018-Jun-13 16:28N 30°08' W 093°19'0 0.0
2018-Jun-13 15:57N 30°08' W 093°19'0 0.0
2018-Jun-13 15:25N 30°08' W 093°19'0 0.0
2018-Jun-13 14:58N 30°08' W 093°19'0 0.1
2018-Jun-13 14:28N 30°08' W 093°19'0 0.0
2018-Jun-13 13:47N 30°08' W 093°19'0 0.0
2018-Jun-13 13:30N 30°08' W 093°19'0 0.0
2018-Jun-13 12:59N 30°08' W 093°19'0 0.0
2018-Jun-13 12:28N 30°08' W 093°19'0 0.0
2018-Jun-13 11:54N 30°08' W 093°19'0 0.0
2018-Jun-13 11:29N 30°08' W 093°19'0 0.0
2018-Jun-13 10:59N 30°08' W 093°19'0 0.0
2018-Jun-13 10:25N 30°08' W 093°19'0 0.0
2018-Jun-13 09:55N 30°08' W 093°19'0 0.0
2018-Jun-13 09:28N 30°08' W 093°19'0 0.0
2018-Jun-13 08:58N 30°08' W 093°19'0 0.0
2018-Jun-13 08:29N 30°08' W 093°19'0 0.0
2018-Jun-13 07:59N 30°08' W 093°19'0 0.0
2018-Jun-13 07:28N 30°08' W 093°19'0 0.0
2018-Jun-13 07:01N 30°08' W 093°19'0 0.0
2018-Jun-13 06:29N 30°08' W 093°19'0 0.0
2018-Jun-13 05:53N 30°08' W 093°19'0 0.0
2018-Jun-13 05:30N 30°08' W 093°19'0 0.0
2018-Jun-13 05:00N 30°08' W 093°19'0 0.0
2018-Jun-13 04:29N 30°08' W 093°19'0 0.0
2018-Jun-13 04:00N 30°08' W 093°19'0 0.0
2018-Jun-13 03:23N 30°08' W 093°19'0 0.0
2018-Jun-13 02:58N 30°08' W 093°19'0 0.0
2018-Jun-13 02:29N 30°08' W 093°19'0 0.0
2018-Jun-13 01:57N 30°08' W 093°19'0 0.0
2018-Jun-13 01:23N 30°08' W 093°19'0 0.0
2018-Jun-13 00:59N 30°08' W 093°19'0 0.0
2018-Jun-13 00:25N 30°08' W 093°19'0 0.0
2018-Jun-12 23:59N 30°08' W 093°19'0 0.0
2018-Jun-12 23:28N 30°08' W 093°19'0 0.0
2018-Jun-12 22:53N 30°08' W 093°19'0 0.0
2018-Jun-12 22:28N 30°08' W 093°19'0 0.0
2018-Jun-12 22:00N 30°08' W 093°19'0 0.0
2018-Jun-12 21:30N 30°08' W 093°19'0 0.0
2018-Jun-12 20:58N 30°08' W 093°19'0 0.0
2018-Jun-12 20:27N 30°08' W 093°19'0 0.0
2018-Jun-12 19:58N 30°08' W 093°19'0 0.0
2018-Jun-12 19:31N 30°08' W 093°19'0 0.0
2018-Jun-12 18:58N 30°08' W 093°19'0 0.0
2018-Jun-12 18:24N 30°08' W 093°19'0 0.0
2018-Jun-12 17:57N 30°08' W 093°19'0 0.0
2018-Jun-12 17:25N 30°08' W 093°19'0 0.0
2018-Jun-12 16:57N 30°08' W 093°19'0 0.0
2018-Jun-12 16:31N 30°08' W 093°19'0 0.0
2018-Jun-12 16:00N 30°08' W 093°19'0 0.0
2018-Jun-12 15:25N 30°08' W 093°19'0 0.0
2018-Jun-12 14:58N 30°08' W 093°19'0 0.0
2018-Jun-12 14:28N 30°08' W 093°19'0 0.0
2018-Jun-12 14:00N 30°08' W 093°19'0 0.0
2018-Jun-12 13:31N 30°08' W 093°19'0 0.0
2018-Jun-12 12:53N 30°08' W 093°19'0 0.0
2018-Jun-12 12:28N 30°08' W 093°19'1 1.1
2018-Jun-12 11:54N 30°08' W 093°20'0 0.3
2018-Jun-12 11:28N 30°07' W 093°20'1 1.5
2018-Jun-12 11:00N 30°07' W 093°20'2 4.5
2018-Jun-12 10:31N 30°05' W 093°20'2 3.6
2018-Jun-12 10:00N 30°04' W 093°22'1 2.7
2018-Jun-12 09:29N 30°04' W 093°24'0 0.5
2018-Jun-12 08:57N 30°04' W 093°24'2 4.3
2018-Jun-12 08:30N 30°04' W 093°26'2 4.5
2018-Jun-12 07:58N 30°04' W 093°29'2 4.6
2018-Jun-12 07:29N 30°04' W 093°32'3 4.5
2018-Jun-12 06:49N 30°04' W 093°35'2 4.6
2018-Jun-12 06:21N 30°04' W 093°38'2 4.3
2018-Jun-12 06:00N 30°04' W 093°39'2 4.5
2018-Jun-12 05:30N 30°03' W 093°42'2 4.5
2018-Jun-12 05:00N 30°02' W 093°44'2 4.4
2018-Jun-12 04:28N 30°01' W 093°46'2 4.7
2018-Jun-12 04:00N 29°59' W 093°48'3 5.2
2018-Jun-12 03:30N 29°58' W 093°51'3 5.1
2018-Jun-12 03:00N 29°59' W 093°53'3 5.8
2018-Jun-12 02:30N 29°60' W 093°57'2 4.9
2018-Jun-12 02:00N 30°01' W 093°59'3 5.1
2018-Jun-12 01:29N 30°02' W 094°02'1 1.5
2018-Jun-12 00:59N 30°02' W 094°03'0 0.0
2018-Jun-12 00:29N 30°02' W 094°03'0 0.0
2018-Jun-11 23:58N 30°02' W 094°03'0 0.0
2018-Jun-11 23:28N 30°02' W 094°03'0 0.0
2018-Jun-11 22:59N 30°02' W 094°03'0 0.0
2018-Jun-11 22:28N 30°02' W 094°03'0 0.0
2018-Jun-11 21:54N 30°02' W 094°03'0 0.0
2018-Jun-11 21:29N 30°02' W 094°03'0 0.0
2018-Jun-11 20:58N 30°02' W 094°03'0 0.0
2018-Jun-11 20:26N 30°02' W 094°03'0 0.0
2018-Jun-11 19:58N 30°02' W 094°03'0 0.0
2018-Jun-11 19:29N 30°02' W 094°03'0 0.0
2018-Jun-11 18:53N 30°02' W 094°03'0 0.0
2018-Jun-11 18:29N 30°02' W 094°03'0 0.0
2018-Jun-11 17:51N 30°02' W 094°03'0 0.0
2018-Jun-11 17:30N 30°02' W 094°03'0 0.0
2018-Jun-11 16:59N 30°02' W 094°03'0 0.0
2018-Jun-11 16:29N 30°02' W 094°03'0 0.0
2018-Jun-11 16:00N 30°02' W 094°03'0 0.0
2018-Jun-11 15:29N 30°02' W 094°03'0 0.0
2018-Jun-11 15:00N 30°02' W 094°03'0 0.0
2018-Jun-11 14:30N 30°02' W 094°03'0 0.0
2018-Jun-11 13:58N 30°02' W 094°03'0 0.0
2018-Jun-11 13:30N 30°02' W 094°03'0 0.0
2018-Jun-11 13:00N 30°02' W 094°03'0 0.0
2018-Jun-11 12:29N 30°02' W 094°03'0 0.0
2018-Jun-11 11:54N 30°02' W 094°03'0 0.0
2018-Jun-11 11:31N 30°02' W 094°03'0 0.0
2018-Jun-11 10:59N 30°02' W 094°03'0 0.0
2018-Jun-11 10:29N 30°02' W 094°03'0 0.0
2018-Jun-11 10:00N 30°02' W 094°03'0 0.0
2018-Jun-11 09:20N 30°02' W 094°03'0 0.0
2018-Jun-11 09:00N 30°02' W 094°03'0 0.0
2018-Jun-11 08:26N 30°02' W 094°03'0 0.0
2018-Jun-11 08:00N 30°02' W 094°03'0 0.0
2018-Jun-11 07:27N 30°02' W 094°03'0 0.0
2018-Jun-11 06:58N 30°02' W 094°03'0 0.0
2018-Jun-11 06:30N 30°02' W 094°03'0 0.0
2018-Jun-11 05:57N 30°02' W 094°03'0 0.0
2018-Jun-11 05:30N 30°02' W 094°03'0 0.0
2018-Jun-11 04:59N 30°02' W 094°03'0 0.0
2018-Jun-11 04:28N 30°02' W 094°03'0 0.0
2018-Jun-11 04:00N 30°02' W 094°03'0 0.0
2018-Jun-11 03:28N 30°02' W 094°03'0 0.0
2018-Jun-11 03:00N 30°02' W 094°03'0 0.0
2018-Jun-11 02:30N 30°02' W 094°03'0 0.0
2018-Jun-11 01:58N 30°02' W 094°03'0 0.0
2018-Jun-11 01:30N 30°02' W 094°03'0 0.0
2018-Jun-11 00:59N 30°02' W 094°03'1 2.1
2018-Jun-11 00:31N 30°02' W 094°02'3 6.6
2018-Jun-11 00:00N 30°01' W 093°58'3 6.0
2018-Jun-10 23:30N 29°59' W 093°55'3 6.7
2018-Jun-10 23:00N 29°58' W 093°52'3 6.3
2018-Jun-10 22:30N 29°59' W 093°48'3 6.7
2018-Jun-10 22:01N 30°01' W 093°45'3 6.0
2018-Jun-10 21:31N 30°03' W 093°42'8 6.6
2018-Jun-10 20:21N 30°04' W 093°34'2 7.0
2018-Jun-10 20:00N 30°04' W 093°31'4 7.1
2018-Jun-10 19:30N 30°04' W 093°27'4 7.1
2018-Jun-10 19:00N 30°04' W 093°22'2 4.9
2018-Jun-10 18:30N 30°05' W 093°20'3 6.2
2018-Jun-10 18:00N 30°08' W 093°20'0 0.6
2018-Jun-10 17:25N 30°08' W 093°19'0 0.0
2018-Jun-10 17:00N 30°08' W 093°19'0 0.0
2018-Jun-10 16:30N 30°08' W 093°19'0 0.0
2018-Jun-10 15:57N 30°08' W 093°19'0 0.0
2018-Jun-10 15:30N 30°08' W 093°19'0 0.0
2018-Jun-10 15:00N 30°08' W 093°19'0 0.0
2018-Jun-10 14:28N 30°08' W 093°19'0 0.0
2018-Jun-10 13:30N 30°08' W 093°19'0 0.0
2018-Jun-10 12:57N 30°08' W 093°19'0 0.0
2018-Jun-10 12:24N 30°08' W 093°19'0 0.0
2018-Jun-10 11:59N 30°08' W 093°19'0 0.0
2018-Jun-10 11:29N 30°08' W 093°19'0 0.0
2018-Jun-10 11:00N 30°08' W 093°19'0 0.0
2018-Jun-10 10:30N 30°08' W 093°19'0 0.0
2018-Jun-10 10:00N 30°08' W 093°19'0 0.0
2018-Jun-10 09:30N 30°08' W 093°19'0 0.0
2018-Jun-10 08:58N 30°08' W 093°19'0 0.0
2018-Jun-10 08:29N 30°08' W 093°19'0 0.0
2018-Jun-10 07:58N 30°08' W 093°19'0 0.0
2018-Jun-10 07:27N 30°08' W 093°19'0 0.0
2018-Jun-10 06:55N 30°08' W 093°19'0 0.0
2018-Jun-10 06:28N 30°08' W 093°19'0 0.0
2018-Jun-10 05:53N 30°08' W 093°19'0 0.0
2018-Jun-10 05:29N 30°08' W 093°19'0 0.0
2018-Jun-10 04:56N 30°08' W 093°19'0 0.2
2018-Jun-10 04:31N 30°08' W 093°19'1 1.9
2018-Jun-10 03:59N 30°07' W 093°20'2 3.2
2018-Jun-10 03:31N 30°06' W 093°19'1 2.2
2018-Jun-10 02:56N 30°06' W 093°18'0 0.0
2018-Jun-10 02:30N 30°06' W 093°18'0 0.0
2018-Jun-10 02:00N 30°06' W 093°18'0 0.0
2018-Jun-10 01:28N 30°06' W 093°18'0 0.0
2018-Jun-10 00:58N 30°06' W 093°18'0 0.0
2018-Jun-10 00:30N 30°06' W 093°18'0 0.0
2018-Jun-10 00:00N 30°06' W 093°18'0 0.2
2018-Jun-09 23:29N 30°06' W 093°18'0 0.0
2018-Jun-09 22:58N 30°06' W 093°18'0 0.3
2018-Jun-09 22:30N 30°06' W 093°18'0 0.0
2018-Jun-09 21:59N 30°06' W 093°18'0 0.0
2018-Jun-09 21:28N 30°06' W 093°18'0 0.0
2018-Jun-09 20:56N 30°06' W 093°18'0 0.0
2018-Jun-09 20:28N 30°06' W 093°18'0 0.0
2018-Jun-09 19:54N 30°06' W 093°18'0 0.1
2018-Jun-09 19:29N 30°06' W 093°18'0 0.0
2018-Jun-09 18:58N 30°06' W 093°18'0 0.1
2018-Jun-09 18:28N 30°06' W 093°18'0 0.0
2018-Jun-09 17:59N 30°06' W 093°18'0 0.0
2018-Jun-09 17:27N 30°06' W 093°18'0 0.0
2018-Jun-09 17:00N 30°06' W 093°18'0 0.0
2018-Jun-09 16:27N 30°06' W 093°18'0 0.0
2018-Jun-09 15:54N 30°06' W 093°18'0 0.0
2018-Jun-09 14:56N 30°06' W 093°18'0 0.0
2018-Jun-09 14:28N 30°06' W 093°18'0 0.0
2018-Jun-09 14:00N 30°06' W 093°18'0 0.0
2018-Jun-09 13:30N 30°06' W 093°18'0 0.0
2018-Jun-09 12:55N 30°06' W 093°18'0 0.0
2018-Jun-09 12:25N 30°06' W 093°18'0 0.0
2018-Jun-09 12:01N 30°06' W 093°18'0 0.0
2018-Jun-09 11:30N 30°06' W 093°18'0 0.0
2018-Jun-09 10:57N 30°06' W 093°18'0 0.0
2018-Jun-09 10:28N 30°06' W 093°18'  
Track history (hours):
 
Tides and Currents Weather Stations Pressure Air Temp Water Temp Dewpoint Dewpoint Depression Visibility Wind Speed Wind Dir Waves Ship Positions

Creole Ann

Owner: LeBeouf Bros. Towing, L.L.C., Houma, LA. More information available from US FCC via Universal Licensing System and Coast Guard Vessel Documentation Center.

Last reported at 2018-Jun-19 10:30 UTC. Time now 2018-Jun-19 10:27 UTC.
Position N 29°60' W 093°46'.

Length 20 m.

MMSI: 367005280.

Date/timePositionNaut miles runAvg speedWind from/ knotsBaromVisibWave heightAir tempDewpointWater temp
2018-Jun-19 10:30N 29°60' W 093°46'2 4.3
2018-Jun-19 10:00N 29°59' W 093°49'2 4.7
2018-Jun-19 09:30N 29°58' W 093°51'3 6.1
2018-Jun-19 09:01N 29°59' W 093°55'3 6.2
2018-Jun-19 08:30N 30°01' W 093°58'3 6.1
2018-Jun-19 08:00N 30°01' W 094°01'2 3.2
2018-Jun-19 07:28N 30°02' W 094°03'0 0.0
2018-Jun-19 06:59N 30°02' W 094°03'0 0.0
2018-Jun-19 06:30N 30°02' W 094°03'0 0.0
2018-Jun-19 06:00N 30°02' W 094°03'0 0.0
2018-Jun-19 05:24N 30°02' W 094°03'0 0.0
2018-Jun-19 05:00N 30°02' W 094°03'0 0.0
2018-Jun-19 04:29N 30°02' W 094°03'0 0.0
2018-Jun-19 03:58N 30°02' W 094°03'0 0.0
2018-Jun-19 03:25N 30°02' W 094°03'0 0.0
2018-Jun-19 02:58N 30°02' W 094°03'0 0.0
2018-Jun-19 02:27N 30°02' W 094°03'0 0.0
2018-Jun-19 02:00N 30°02' W 094°03'0 0.0
2018-Jun-19 01:30N 30°02' W 094°03'0 0.0
2018-Jun-19 01:00N 30°02' W 094°03'0 0.0
2018-Jun-19 00:28N 30°02' W 094°03'0 0.0
2018-Jun-18 23:58N 30°02' W 094°03'0 0.0
2018-Jun-18 23:24N 30°02' W 094°03'0 0.0
2018-Jun-18 22:58N 30°02' W 094°03'0 0.0
2018-Jun-18 22:30N 30°02' W 094°03'0 0.0
2018-Jun-18 21:58N 30°02' W 094°03'0 0.0
2018-Jun-18 21:27N 30°02' W 094°03'0 0.0
2018-Jun-18 20:58N 30°02' W 094°03'0 0.0
2018-Jun-18 20:30N 30°02' W 094°03'0 0.0
2018-Jun-18 19:57N 30°02' W 094°03'0 0.0
2018-Jun-18 19:24N 30°02' W 094°03'0 0.0
2018-Jun-18 18:53N 30°02' W 094°03'0 0.0
2018-Jun-18 18:28N 30°02' W 094°03'0 0.0
2018-Jun-18 18:00N 30°02' W 094°03'0 0.0
2018-Jun-18 17:30N 30°02' W 094°03'0 0.0
2018-Jun-18 16:59N 30°02' W 094°03'0 0.0
2018-Jun-18 16:21N 30°02' W 094°03'0 0.0
2018-Jun-18 15:55N 30°02' W 094°03'0 0.0
2018-Jun-18 15:17N 30°02' W 094°03'0 0.0
2018-Jun-18 14:59N 30°02' W 094°03'2 3.7
2018-Jun-18 14:30N 30°01' W 094°01'3 6.8
2018-Jun-18 14:00N 30°01' W 093°57'4 7.2
2018-Jun-18 13:30N 29°59' W 093°54'3 6.2
2018-Jun-18 13:00N 29°59' W 093°50'4 7.6
2018-Jun-18 12:30N 30°00' W 093°46'3 6.3
2018-Jun-18 12:00N 30°03' W 093°44'4 7.2
2018-Jun-18 11:30N 30°04' W 093°40'6 7.2
2018-Jun-18 10:43N 30°04' W 093°33'1 7.1
2018-Jun-18 10:30N 30°04' W 093°32'4 7.1
2018-Jun-18 10:00N 30°04' W 093°27'3 6.7
2018-Jun-18 09:30N 30°04' W 093°23'3 5.3
2018-Jun-18 09:00N 30°04' W 093°21'3 5.4
2018-Jun-18 08:30N 30°07' W 093°20'1 2.4
2018-Jun-18 07:58N 30°08' W 093°19'0 0.0
2018-Jun-18 07:23N 30°08' W 093°19'0 0.0
2018-Jun-18 06:59N 30°08' W 093°19'0 0.0
2018-Jun-18 06:30N 30°08' W 093°19'0 0.0
2018-Jun-18 05:58N 30°08' W 093°19'0 0.0
2018-Jun-18 05:27N 30°08' W 093°19'0 0.0
2018-Jun-18 04:59N 30°08' W 093°19'0 0.0
2018-Jun-18 04:29N 30°08' W 093°19'0 0.0
2018-Jun-18 03:59N 30°08' W 093°19'0 0.0
2018-Jun-18 03:30N 30°08' W 093°19'0 0.0
2018-Jun-18 02:58N 30°08' W 093°19'0 0.0
2018-Jun-18 02:28N 30°08' W 093°19'0 0.0
2018-Jun-18 01:55N 30°08' W 093°19'0 0.0
2018-Jun-18 01:30N 30°08' W 093°19'0 0.0
2018-Jun-18 01:00N 30°08' W 093°19'0 0.0
2018-Jun-18 00:26N 30°08' W 093°19'0 0.0
2018-Jun-17 23:58N 30°08' W 093°19'0 0.0
2018-Jun-17 23:22N 30°08' W 093°19'0 0.0
2018-Jun-17 23:01N 30°08' W 093°19'0 0.0
2018-Jun-17 22:28N 30°08' W 093°19'0 0.0
2018-Jun-17 21:55N 30°08' W 093°19'0 0.0
2018-Jun-17 21:28N 30°08' W 093°19'0 0.0
2018-Jun-17 20:58N 30°08' W 093°19'0 0.0
2018-Jun-17 20:26N 30°08' W 093°19'0 0.0
2018-Jun-17 20:00N 30°08' W 093°19'0 0.0
2018-Jun-17 19:24N 30°08' W 093°19'0 0.0
2018-Jun-17 18:59N 30°08' W 093°19'0 0.0
2018-Jun-17 18:26N 30°08' W 093°19'0 0.0
2018-Jun-17 17:59N 30°08' W 093°19'0 0.0
2018-Jun-17 17:27N 30°08' W 093°19'0 0.0
2018-Jun-17 16:58N 30°08' W 093°19'0 0.0
2018-Jun-17 16:28N 30°08' W 093°19'0 0.0
2018-Jun-17 15:55N 30°08' W 093°19'0 0.0
2018-Jun-17 15:29N 30°08' W 093°19'0 0.0
2018-Jun-17 14:55N 30°08' W 093°19'0 0.0
2018-Jun-17 14:26N 30°08' W 093°19'0 0.3
2018-Jun-17 13:57N 30°08' W 093°19'0 0.0
2018-Jun-17 13:29N 30°08' W 093°19'0 0.0
2018-Jun-17 12:58N 30°08' W 093°19'0 0.0
2018-Jun-17 12:29N 30°08' W 093°19'0 0.0
2018-Jun-17 12:00N 30°08' W 093°19'0 0.0
2018-Jun-17 11:28N 30°08' W 093°19'0 0.0
2018-Jun-17 10:57N 30°08' W 093°19'0 0.0
2018-Jun-17 10:28N 30°08' W 093°19'0 0.0
2018-Jun-17 09:56N 30°08' W 093°19'0 0.0
2018-Jun-17 09:25N 30°08' W 093°19'0 0.0
2018-Jun-17 08:59N 30°08' W 093°19'0 0.0
2018-Jun-17 08:29N 30°08' W 093°19'0 0.0
2018-Jun-17 08:00N 30°08' W 093°19'0 0.0
2018-Jun-17 07:28N 30°08' W 093°19'0 0.0
2018-Jun-17 07:00N 30°08' W 093°19'0 0.0
2018-Jun-17 06:30N 30°08' W 093°19'0 0.0
2018-Jun-17 05:57N 30°08' W 093°19'0 0.0
2018-Jun-17 05:30N 30°08' W 093°19'0 0.0
2018-Jun-17 04:58N 30°08' W 093°19'0 0.0
2018-Jun-17 04:30N 30°08' W 093°19'0 0.0
2018-Jun-17 04:00N 30°08' W 093°19'0 0.0
2018-Jun-17 03:30N 30°08' W 093°19'0 0.0
2018-Jun-17 02:59N 30°08' W 093°19'0 0.3
2018-Jun-17 02:28N 30°08' W 093°19'0 0.3
2018-Jun-17 02:00N 30°08' W 093°19'0 0.0
2018-Jun-17 01:28N 30°08' W 093°19'0 0.0
2018-Jun-17 00:56N 30°08' W 093°19'0 0.0
2018-Jun-17 00:29N 30°08' W 093°19'0 0.0
2018-Jun-16 23:56N 30°08' W 093°19'0 0.0
2018-Jun-16 23:30N 30°08' W 093°19'0 0.0
2018-Jun-16 22:59N 30°08' W 093°19'0 0.0
2018-Jun-16 22:30N 30°08' W 093°19'0 0.0
2018-Jun-16 21:57N 30°08' W 093°19'0 0.0
2018-Jun-16 21:27N 30°08' W 093°19'0 0.0
2018-Jun-16 20:58N 30°08' W 093°19'0 0.0
2018-Jun-16 20:28N 30°08' W 093°19'0 0.0
2018-Jun-16 19:59N 30°08' W 093°19'0 0.0
2018-Jun-16 19:28N 30°08' W 093°19'0 0.1
2018-Jun-16 19:00N 30°08' W 093°19'0 0.0
2018-Jun-16 18:27N 30°08' W 093°19'0 0.0
2018-Jun-16 17:55N 30°08' W 093°19'0 0.0
2018-Jun-16 17:23N 30°08' W 093°19'0 0.0
2018-Jun-16 16:58N 30°08' W 093°19'0 0.0
2018-Jun-16 16:30N 30°08' W 093°19'0 0.0
2018-Jun-16 16:00N 30°08' W 093°19'0 0.0
2018-Jun-16 15:30N 30°08' W 093°19'0 0.0
2018-Jun-16 14:58N 30°08' W 093°19'0 0.0
2018-Jun-16 14:29N 30°08' W 093°19'0 0.0
2018-Jun-16 13:51N 30°08' W 093°19'0 0.0
2018-Jun-16 13:30N 30°08' W 093°19'0 0.0
2018-Jun-16 12:56N 30°08' W 093°19'0 0.0
2018-Jun-16 12:30N 30°08' W 093°19'0 0.0
2018-Jun-16 11:56N 30°08' W 093°19'0 0.0
2018-Jun-16 11:28N 30°08' W 093°19'0 0.0
2018-Jun-16 10:58N 30°08' W 093°19'0 0.0
2018-Jun-16 10:31N 30°08' W 093°19'0 0.0
2018-Jun-16 09:59N 30°08' W 093°19'0 0.3
2018-Jun-16 09:29N 30°08' W 093°20'0 0.0
2018-Jun-16 08:58N 30°08' W 093°20'0 0.0
2018-Jun-16 08:28N 30°08' W 093°20'0 0.0
2018-Jun-16 08:00N 30°08' W 093°20'0 0.0
2018-Jun-16 07:28N 30°08' W 093°20'0 0.0
2018-Jun-16 07:00N 30°08' W 093°20'0 0.0
2018-Jun-16 06:30N 30°08' W 093°20'0 0.0
2018-Jun-16 05:54N 30°08' W 093°20'0 0.0
2018-Jun-16 05:30N 30°08' W 093°20'0 0.0
2018-Jun-16 04:58N 30°08' W 093°20'0 0.0
2018-Jun-16 04:30N 30°08' W 093°20'0 0.0
2018-Jun-16 03:58N 30°08' W 093°20'0 0.0
2018-Jun-16 03:24N 30°08' W 093°20'0 0.0
2018-Jun-16 03:01N 30°08' W 093°20'0 0.0
2018-Jun-16 02:30N 30°08' W 093°20'0 0.5
2018-Jun-16 02:00N 30°08' W 093°20'1 1.0
2018-Jun-16 01:30N 30°09' W 093°20'2 4.3
2018-Jun-16 01:00N 30°11' W 093°19'3 6.1
2018-Jun-16 00:30N 30°12' W 093°16'2 3.7
2018-Jun-16 00:00N 30°14' W 093°15'2 3.5
2018-Jun-15 23:26N 30°15' W 093°13'1 2.1
2018-Jun-15 23:00N 30°16' W 093°13'2 3.3
2018-Jun-15 22:30N 30°17' W 093°11'1 1.3
2018-Jun-15 22:00N 30°18' W 093°10'1 1.9
2018-Jun-15 21:29N 30°18' W 093°10'2 0.1
2018-Jun-15 04:12N 30°17' W 093°08'1 1.9
2018-Jun-15 03:54N 30°18' W 093°09'1 2.6
2018-Jun-15 03:23N 30°19' W 093°10'1 2.5
2018-Jun-15 02:56N 30°18' W 093°11'1 1.8
2018-Jun-15 02:30N 30°17' W 093°11'2 4.1
2018-Jun-15 01:59N 30°15' W 093°13'2 3.8
2018-Jun-15 01:27N 30°15' W 093°15'2 3.6
2018-Jun-15 01:00N 30°13' W 093°16'3 6.7
2018-Jun-15 00:30N 30°11' W 093°19'3 6.2
2018-Jun-15 00:00N 30°08' W 093°20'0 0.7
2018-Jun-14 23:30N 30°08' W 093°19'0 0.0
2018-Jun-14 22:59N 30°08' W 093°19'0 0.0
2018-Jun-14 22:23N 30°08' W 093°19'0 0.0
2018-Jun-14 21:58N 30°08' W 093°19'0 0.0
2018-Jun-14 21:29N 30°08' W 093°19'0 0.0
2018-Jun-14 21:01N 30°08' W 093°19'0 0.0
2018-Jun-14 20:27N 30°08' W 093°19'0 0.0
2018-Jun-14 19:59N 30°08' W 093°19'0 0.0
2018-Jun-14 19:28N 30°08' W 093°19'0 0.0
2018-Jun-14 19:00N 30°08' W 093°19'0 0.0
2018-Jun-14 18:28N 30°08' W 093°19'0 0.0
2018-Jun-14 17:54N 30°08' W 093°19'0 0.0
2018-Jun-14 17:28N 30°08' W 093°19'0 0.0
2018-Jun-14 16:58N 30°08' W 093°19'0 0.0
2018-Jun-14 16:29N 30°08' W 093°19'0 0.0
2018-Jun-14 16:00N 30°08' W 093°19'0 0.0
2018-Jun-14 15:25N 30°08' W 093°19'0 0.0
2018-Jun-14 14:58N 30°08' W 093°19'0 0.0
2018-Jun-14 14:28N 30°08' W 093°19'0 0.0
2018-Jun-14 13:59N 30°08' W 093°19'0 0.0
2018-Jun-14 13:30N 30°08' W 093°19'0 0.0
2018-Jun-14 12:58N 30°08' W 093°19'0 0.0
2018-Jun-14 12:29N 30°08' W 093°19'0 0.0
2018-Jun-14 11:58N 30°08' W 093°19'0 0.0
2018-Jun-14 11:24N 30°08' W 093°19'0 0.0
2018-Jun-14 11:00N 30°08' W 093°19'0 0.0
2018-Jun-14 10:29N 30°08' W 093°19'0 0.0
2018-Jun-14 10:00N 30°08' W 093°19'0 0.0
2018-Jun-14 09:30N 30°08' W 093°19'0 0.0
2018-Jun-14 08:58N 30°08' W 093°19'0 0.1
2018-Jun-14 08:16N 30°08' W 093°19'0 0.1
2018-Jun-14 07:59N 30°08' W 093°19'0 0.2
2018-Jun-14 07:26N 30°08' W 093°20'0 0.1
2018-Jun-14 06:53N 30°08' W 093°19'0 0.0
2018-Jun-14 06:30N 30°08' W 093°19'0 0.0
2018-Jun-14 05:59N 30°08' W 093°19'0 0.0
2018-Jun-14 05:30N 30°08' W 093°19'0 0.0
2018-Jun-14 04:59N 30°08' W 093°19'0 0.0
2018-Jun-14 04:29N 30°08' W 093°19'0 0.0
2018-Jun-14 04:00N 30°08' W 093°19'0 0.0
2018-Jun-14 03:23N 30°08' W 093°19'0 0.0
2018-Jun-14 03:00N 30°08' W 093°19'0 0.0
2018-Jun-14 02:28N 30°08' W 093°19'0 0.0
2018-Jun-14 01:58N 30°08' W 093°19'0 0.2
2018-Jun-14 01:25N 30°08' W 093°20'0 0.2
2018-Jun-14 00:57N 30°08' W 093°19'0 0.0
2018-Jun-14 00:28N 30°08' W 093°19'0 0.0
2018-Jun-14 00:00N 30°08' W 093°19'0 0.0
2018-Jun-13 23:24N 30°08' W 093°19'0 0.0
2018-Jun-13 22:58N 30°08' W 093°19'0 0.0
2018-Jun-13 22:30N 30°08' W 093°19'0 0.0
2018-Jun-13 22:00N 30°08' W 093°19'0 0.0
2018-Jun-13 21:25N 30°08' W 093°19'0 0.0
2018-Jun-13 21:01N 30°08' W 093°19'0 0.0
2018-Jun-13 20:24N 30°08' W 093°19'0 0.0
2018-Jun-13 19:56N 30°08' W 093°19'0 0.0
2018-Jun-13 19:30N 30°08' W 093°19'0 0.0
2018-Jun-13 18:59N 30°08' W 093°19'0 0.0
2018-Jun-13 18:28N 30°08' W 093°19'0 0.0
2018-Jun-13 17:56N 30°08' W 093°19'0 0.0
2018-Jun-13 17:29N 30°08' W 093°19'0 0.0
2018-Jun-13 16:59N 30°08' W 093°19'0 0.0
2018-Jun-13 16:28N 30°08' W 093°19'0 0.0
2018-Jun-13 15:57N 30°08' W 093°19'0 0.0
2018-Jun-13 15:25N 30°08' W 093°19'0 0.0
2018-Jun-13 14:58N 30°08' W 093°19'0 0.1
2018-Jun-13 14:28N 30°08' W 093°19'0 0.0
2018-Jun-13 13:47N 30°08' W 093°19'0 0.0
2018-Jun-13 13:30N 30°08' W 093°19'0 0.0
2018-Jun-13 12:59N 30°08' W 093°19'0 0.0
2018-Jun-13 12:28N 30°08' W 093°19'0 0.0
2018-Jun-13 11:54N 30°08' W 093°19'0 0.0
2018-Jun-13 11:29N 30°08' W 093°19'0 0.0
2018-Jun-13 10:59N 30°08' W 093°19'0 0.0
2018-Jun-13 10:25N 30°08' W 093°19'0 0.0
2018-Jun-13 09:55N 30°08' W 093°19'0 0.0
2018-Jun-13 09:28N 30°08' W 093°19'0 0.0
2018-Jun-13 08:58N 30°08' W 093°19'0 0.0
2018-Jun-13 08:29N 30°08' W 093°19'0 0.0
2018-Jun-13 07:59N 30°08' W 093°19'0 0.0
2018-Jun-13 07:28N 30°08' W 093°19'0 0.0
2018-Jun-13 07:01N 30°08' W 093°19'0 0.0
2018-Jun-13 06:29N 30°08' W 093°19'0 0.0
2018-Jun-13 05:53N 30°08' W 093°19'0 0.0
2018-Jun-13 05:30N 30°08' W 093°19'0 0.0
2018-Jun-13 05:00N 30°08' W 093°19'0 0.0
2018-Jun-13 04:29N 30°08' W 093°19'0 0.0
2018-Jun-13 04:00N 30°08' W 093°19'0 0.0
2018-Jun-13 03:23N 30°08' W 093°19'0 0.0
2018-Jun-13 02:58N 30°08' W 093°19'0 0.0
2018-Jun-13 02:29N 30°08' W 093°19'0 0.0
2018-Jun-13 01:57N 30°08' W 093°19'0 0.0
2018-Jun-13 01:23N 30°08' W 093°19'0 0.0
2018-Jun-13 00:59N 30°08' W 093°19'0 0.0
2018-Jun-13 00:25N 30°08' W 093°19'0 0.0
2018-Jun-12 23:59N 30°08' W 093°19'0 0.0
2018-Jun-12 23:28N 30°08' W 093°19'0 0.0
2018-Jun-12 22:53N 30°08' W 093°19'0 0.0
2018-Jun-12 22:28N 30°08' W 093°19'0 0.0
2018-Jun-12 22:00N 30°08' W 093°19'0 0.0
2018-Jun-12 21:30N 30°08' W 093°19'0 0.0
2018-Jun-12 20:58N 30°08' W 093°19'0 0.0
2018-Jun-12 20:27N 30°08' W 093°19'0 0.0
2018-Jun-12 19:58N 30°08' W 093°19'0 0.0
2018-Jun-12 19:31N 30°08' W 093°19'0 0.0
2018-Jun-12 18:58N 30°08' W 093°19'0 0.0
2018-Jun-12 18:24N 30°08' W 093°19'0 0.0
2018-Jun-12 17:57N 30°08' W 093°19'0 0.0
2018-Jun-12 17:25N 30°08' W 093°19'0 0.0
2018-Jun-12 16:57N 30°08' W 093°19'0 0.0
2018-Jun-12 16:31N 30°08' W 093°19'0 0.0
2018-Jun-12 16:00N 30°08' W 093°19'0 0.0
2018-Jun-12 15:25N 30°08' W 093°19'0 0.0
2018-Jun-12 14:58N 30°08' W 093°19'0 0.0
2018-Jun-12 14:28N 30°08' W 093°19'0 0.0
2018-Jun-12 14:00N 30°08' W 093°19'0 0.0
2018-Jun-12 13:31N 30°08' W 093°19'0 0.0
2018-Jun-12 12:53N 30°08' W 093°19'0 0.0
2018-Jun-12 12:28N 30°08' W 093°19'1 1.1
2018-Jun-12 11:54N 30°08' W 093°20'0 0.3
2018-Jun-12 11:28N 30°07' W 093°20'1 1.5
2018-Jun-12 11:00N 30°07' W 093°20'2 4.5
2018-Jun-12 10:31N 30°05' W 093°20'2 3.6
2018-Jun-12 10:00N 30°04' W 093°22'1 2.7
2018-Jun-12 09:29N 30°04' W 093°24'0 0.5
2018-Jun-12 08:57N 30°04' W 093°24'2 4.3
2018-Jun-12 08:30N 30°04' W 093°26'2 4.5
2018-Jun-12 07:58N 30°04' W 093°29'2 4.6
2018-Jun-12 07:29N 30°04' W 093°32'3 4.5
2018-Jun-12 06:49N 30°04' W 093°35'2 4.6
2018-Jun-12 06:21N 30°04' W 093°38'2 4.3
2018-Jun-12 06:00N 30°04' W 093°39'2 4.5
2018-Jun-12 05:30N 30°03' W 093°42'2 4.5
2018-Jun-12 05:00N 30°02' W 093°44'2 4.4
2018-Jun-12 04:28N 30°01' W 093°46'2 4.7
2018-Jun-12 04:00N 29°59' W 093°48'3 5.2
2018-Jun-12 03:30N 29°58' W 093°51'3 5.1
2018-Jun-12 03:00N 29°59' W 093°53'3 5.8
2018-Jun-12 02:30N 29°60' W 093°57'2 4.9
2018-Jun-12 02:00N 30°01' W 093°59'3 5.1
2018-Jun-12 01:29N 30°02' W 094°02'1 1.5
2018-Jun-12 00:59N 30°02' W 094°03'0 0.0
2018-Jun-12 00:29N 30°02' W 094°03'0 0.0
2018-Jun-11 23:58N 30°02' W 094°03'0 0.0
2018-Jun-11 23:28N 30°02' W 094°03'0 0.0
2018-Jun-11 22:59N 30°02' W 094°03'0 0.0
2018-Jun-11 22:28N 30°02' W 094°03'0 0.0
2018-Jun-11 21:54N 30°02' W 094°03'0 0.0
2018-Jun-11 21:29N 30°02' W 094°03'0 0.0
2018-Jun-11 20:58N 30°02' W 094°03'0 0.0
2018-Jun-11 20:26N 30°02' W 094°03'0 0.0
2018-Jun-11 19:58N 30°02' W 094°03'0 0.0
2018-Jun-11 19:29N 30°02' W 094°03'0 0.0
2018-Jun-11 18:53N 30°02' W 094°03'0 0.0
2018-Jun-11 18:29N 30°02' W 094°03'0 0.0
2018-Jun-11 17:51N 30°02' W 094°03'0 0.0
2018-Jun-11 17:30N 30°02' W 094°03'0 0.0
2018-Jun-11 16:59N 30°02' W 094°03'0 0.0
2018-Jun-11 16:29N 30°02' W 094°03'0 0.0
2018-Jun-11 16:00N 30°02' W 094°03'0 0.0
2018-Jun-11 15:29N 30°02' W 094°03'0 0.0
2018-Jun-11 15:00N 30°02' W 094°03'0 0.0
2018-Jun-11 14:30N 30°02' W 094°03'0 0.0
2018-Jun-11 13:58N 30°02' W 094°03'0 0.0
2018-Jun-11 13:30N 30°02' W 094°03'0 0.0
2018-Jun-11 13:00N 30°02' W 094°03'0 0.0
2018-Jun-11 12:29N 30°02' W 094°03'0 0.0
2018-Jun-11 11:54N 30°02' W 094°03'0 0.0
2018-Jun-11 11:31N 30°02' W 094°03'0 0.0
2018-Jun-11 10:59N 30°02' W 094°03'0 0.0
2018-Jun-11 10:29N 30°02' W 094°03'0 0.0
2018-Jun-11 10:00N 30°02' W 094°03'0 0.0
2018-Jun-11 09:20N 30°02' W 094°03'0 0.0
2018-Jun-11 09:00N 30°02' W 094°03'0 0.0
2018-Jun-11 08:26N 30°02' W 094°03'0 0.0
2018-Jun-11 08:00N 30°02' W 094°03'0 0.0
2018-Jun-11 07:27N 30°02' W 094°03'0 0.0
2018-Jun-11 06:58N 30°02' W 094°03'0 0.0
2018-Jun-11 06:30N 30°02' W 094°03'0 0.0
2018-Jun-11 05:57N 30°02' W 094°03'0 0.0
2018-Jun-11 05:30N 30°02' W 094°03'0 0.0
2018-Jun-11 04:59N 30°02' W 094°03'0 0.0
2018-Jun-11 04:28N 30°02' W 094°03'0 0.0
2018-Jun-11 04:00N 30°02' W 094°03'0 0.0
2018-Jun-11 03:28N 30°02' W 094°03'0 0.0
2018-Jun-11 03:00N 30°02' W 094°03'0 0.0
2018-Jun-11 02:30N 30°02' W 094°03'0 0.0
2018-Jun-11 01:58N 30°02' W 094°03'0 0.0
2018-Jun-11 01:30N 30°02' W 094°03'0 0.0
2018-Jun-11 00:59N 30°02' W 094°03'1 2.1
2018-Jun-11 00:31N 30°02' W 094°02'3 6.6
2018-Jun-11 00:00N 30°01' W 093°58'3 6.0
2018-Jun-10 23:30N 29°59' W 093°55'3 6.7
2018-Jun-10 23:00N 29°58' W 093°52'3 6.3
2018-Jun-10 22:30N 29°59' W 093°48'3 6.7
2018-Jun-10 22:01N 30°01' W 093°45'3 6.0
2018-Jun-10 21:31N 30°03' W 093°42'8 6.6
2018-Jun-10 20:21N 30°04' W 093°34'2 7.0
2018-Jun-10 20:00N 30°04' W 093°31'4 7.1
2018-Jun-10 19:30N 30°04' W 093°27'4 7.1
2018-Jun-10 19:00N 30°04' W 093°22'2 4.9
2018-Jun-10 18:30N 30°05' W 093°20'3 6.2
2018-Jun-10 18:00N 30°08' W 093°20'0 0.6
2018-Jun-10 17:25N 30°08' W 093°19'0 0.0
2018-Jun-10 17:00N 30°08' W 093°19'0 0.0
2018-Jun-10 16:30N 30°08' W 093°19'0 0.0
2018-Jun-10 15:57N 30°08' W 093°19'0 0.0
2018-Jun-10 15:30N 30°08' W 093°19'0 0.0
2018-Jun-10 15:00N 30°08' W 093°19'0 0.0
2018-Jun-10 14:28N 30°08' W 093°19'0 0.0
2018-Jun-10 13:30N 30°08' W 093°19'0 0.0
2018-Jun-10 12:57N 30°08' W 093°19'0 0.0
2018-Jun-10 12:24N 30°08' W 093°19'0 0.0
2018-Jun-10 11:59N 30°08' W 093°19'0 0.0
2018-Jun-10 11:29N 30°08' W 093°19'0 0.0
2018-Jun-10 11:00N 30°08' W 093°19'0 0.0
2018-Jun-10 10:30N 30°08' W 093°19'0 0.0
2018-Jun-10 10:00N 30°08' W 093°19'0 0.0
2018-Jun-10 09:30N 30°08' W 093°19'0 0.0
2018-Jun-10 08:58N 30°08' W 093°19'0 0.0
2018-Jun-10 08:29N 30°08' W 093°19'0 0.0
2018-Jun-10 07:58N 30°08' W 093°19'0 0.0
2018-Jun-10 07:27N 30°08' W 093°19'0 0.0
2018-Jun-10 06:55N 30°08' W 093°19'0 0.0
2018-Jun-10 06:28N 30°08' W 093°19'0 0.0
2018-Jun-10 05:53N 30°08' W 093°19'0 0.0
2018-Jun-10 05:29N 30°08' W 093°19'0 0.0
2018-Jun-10 04:56N 30°08' W 093°19'0 0.2
2018-Jun-10 04:31N 30°08' W 093°19'1 1.9
2018-Jun-10 03:59N 30°07' W 093°20'2 3.2
2018-Jun-10 03:31N 30°06' W 093°19'1 2.2
2018-Jun-10 02:56N 30°06' W 093°18'0 0.0
2018-Jun-10 02:30N 30°06' W 093°18'0 0.0
2018-Jun-10 02:00N 30°06' W 093°18'0 0.0
2018-Jun-10 01:28N 30°06' W 093°18'0 0.0
2018-Jun-10 00:58N 30°06' W 093°18'0 0.0
2018-Jun-10 00:30N 30°06' W 093°18'0 0.0
2018-Jun-10 00:00N 30°06' W 093°18'0 0.2
2018-Jun-09 23:29N 30°06' W 093°18'0 0.0
2018-Jun-09 22:58N 30°06' W 093°18'0 0.3
2018-Jun-09 22:30N 30°06' W 093°18'0 0.0
2018-Jun-09 21:59N 30°06' W 093°18'0 0.0
2018-Jun-09 21:28N 30°06' W 093°18'0 0.0
2018-Jun-09 20:56N 30°06' W 093°18'0 0.0
2018-Jun-09 20:28N 30°06' W 093°18'0 0.0
2018-Jun-09 19:54N 30°06' W 093°18'0 0.1
2018-Jun-09 19:29N 30°06' W 093°18'0 0.0
2018-Jun-09 18:58N 30°06' W 093°18'0 0.1
2018-Jun-09 18:28N 30°06' W 093°18'0 0.0
2018-Jun-09 17:59N 30°06' W 093°18'0 0.0
2018-Jun-09 17:27N 30°06' W 093°18'0 0.0
2018-Jun-09 17:00N 30°06' W 093°18'0 0.0
2018-Jun-09 16:27N 30°06' W 093°18'0 0.0
2018-Jun-09 15:54N 30°06' W 093°18'0 0.0
2018-Jun-09 14:56N 30°06' W 093°18'0 0.0
2018-Jun-09 14:28N 30°06' W 093°18'0 0.0
2018-Jun-09 14:00N 30°06' W 093°18'0 0.0
2018-Jun-09 13:30N 30°06' W 093°18'0 0.0
2018-Jun-09 12:55N 30°06' W 093°18'0 0.0
2018-Jun-09 12:25N 30°06' W 093°18'0 0.0
2018-Jun-09 12:01N 30°06' W 093°18'0 0.0
2018-Jun-09 11:30N 30°06' W 093°18'0 0.0
2018-Jun-09 10:57N 30°06' W 093°18'0 0.0
2018-Jun-09 10:28N 30°06' W 093°18'  

Dump ship's entire track history